sensor_id;sensor_type;location;lat;lon;timestamp;P1;durP1;ratioP1;P2;durP2;ratioP2
71572;SDS011;59408;51.032;9.410;2023-08-21T00:00:45;13.90;;;7.70;;
71572;SDS011;59408;51.032;9.410;2023-08-21T00:03:12;11.75;;;7.25;;
71572;SDS011;59408;51.032;9.410;2023-08-21T00:05:38;13.90;;;8.88;;
71572;SDS011;59408;51.032;9.410;2023-08-21T00:08:05;12.75;;;8.38;;
71572;SDS011;59408;51.032;9.410;2023-08-21T00:10:32;11.15;;;7.25;;
71572;SDS011;59408;51.032;9.410;2023-08-21T00:12:58;13.43;;;8.03;;
71572;SDS011;59408;51.032;9.410;2023-08-21T00:15:26;12.15;;;7.43;;
71572;SDS011;59408;51.032;9.410;2023-08-21T00:17:53;13.35;;;8.07;;
71572;SDS011;59408;51.032;9.410;2023-08-21T00:20:19;12.55;;;7.70;;
71572;SDS011;59408;51.032;9.410;2023-08-21T00:22:46;13.45;;;8.30;;
71572;SDS011;59408;51.032;9.410;2023-08-21T00:25:13;13.10;;;8.10;;
71572;SDS011;59408;51.032;9.410;2023-08-21T00:27:39;12.85;;;7.38;;
71572;SDS011;59408;51.032;9.410;2023-08-21T00:30:06;12.35;;;7.78;;
71572;SDS011;59408;51.032;9.410;2023-08-21T00:32:35;12.60;;;7.28;;
71572;SDS011;59408;51.032;9.410;2023-08-21T00:35:02;14.02;;;7.55;;
71572;SDS011;59408;51.032;9.410;2023-08-21T00:37:29;13.03;;;7.90;;
71572;SDS011;59408;51.032;9.410;2023-08-21T00:39:55;12.38;;;7.75;;
71572;SDS011;59408;51.032;9.410;2023-08-21T00:42:22;13.38;;;7.72;;
71572;SDS011;59408;51.032;9.410;2023-08-21T00:44:48;13.02;;;8.00;;
71572;SDS011;59408;51.032;9.410;2023-08-21T00:47:15;11.60;;;7.55;;
71572;SDS011;59408;51.032;9.410;2023-08-21T00:49:43;12.03;;;7.13;;
71572;SDS011;59408;51.032;9.410;2023-08-21T00:52:10;14.15;;;8.32;;
71572;SDS011;59408;51.032;9.410;2023-08-21T00:54:38;13.35;;;7.55;;
71572;SDS011;59408;51.032;9.410;2023-08-21T00:57:05;13.30;;;7.78;;
71572;SDS011;59408;51.032;9.410;2023-08-21T00:59:31;12.48;;;7.72;;
71572;SDS011;59408;51.032;9.410;2023-08-21T01:01:58;13.30;;;7.93;;
71572;SDS011;59408;51.032;9.410;2023-08-21T01:04:25;13.68;;;7.80;;
71572;SDS011;59408;51.032;9.410;2023-08-21T01:06:53;15.40;;;8.55;;
71572;SDS011;59408;51.032;9.410;2023-08-21T01:09:22;15.48;;;8.30;;
71572;SDS011;59408;51.032;9.410;2023-08-21T01:11:54;14.25;;;7.88;;
71572;SDS011;59408;51.032;9.410;2023-08-21T01:14:31;14.77;;;7.70;;
71572;SDS011;59408;51.032;9.410;2023-08-21T01:17:03;15.75;;;8.50;;
71572;SDS011;59408;51.032;9.410;2023-08-21T01:19:31;12.13;;;7.65;;
71572;SDS011;59408;51.032;9.410;2023-08-21T01:22:03;14.25;;;7.85;;
71572;SDS011;59408;51.032;9.410;2023-08-21T01:24:31;16.52;;;8.50;;
71572;SDS011;59408;51.032;9.410;2023-08-21T01:26:58;12.13;;;7.53;;
71572;SDS011;59408;51.032;9.410;2023-08-21T01:29:24;13.40;;;7.90;;
71572;SDS011;59408;51.032;9.410;2023-08-21T01:31:52;12.88;;;8.10;;
71572;SDS011;59408;51.032;9.410;2023-08-21T01:34:24;11.63;;;7.40;;
71572;SDS011;59408;51.032;9.410;2023-08-21T01:36:54;13.38;;;8.13;;
71572;SDS011;59408;51.032;9.410;2023-08-21T01:39:21;13.60;;;8.33;;
71572;SDS011;59408;51.032;9.410;2023-08-21T01:41:50;14.35;;;8.43;;
71572;SDS011;59408;51.032;9.410;2023-08-21T01:44:17;14.90;;;8.75;;
71572;SDS011;59408;51.032;9.410;2023-08-21T01:46:43;13.00;;;8.00;;
71572;SDS011;59408;51.032;9.410;2023-08-21T01:49:10;13.98;;;8.65;;
71572;SDS011;59408;51.032;9.410;2023-08-21T01:51:36;12.10;;;8.10;;
71572;SDS011;59408;51.032;9.410;2023-08-21T01:54:03;14.88;;;8.60;;
71572;SDS011;59408;51.032;9.410;2023-08-21T01:56:29;12.48;;;7.80;;
71572;SDS011;59408;51.032;9.410;2023-08-21T01:58:57;12.25;;;8.00;;
71572;SDS011;59408;51.032;9.410;2023-08-21T02:01:24;14.48;;;8.38;;
71572;SDS011;59408;51.032;9.410;2023-08-21T02:03:50;14.53;;;7.53;;
71572;SDS011;59408;51.032;9.410;2023-08-21T02:06:17;13.88;;;8.30;;
71572;SDS011;59408;51.032;9.410;2023-08-21T02:08:43;12.32;;;7.85;;
71572;SDS011;59408;51.032;9.410;2023-08-21T02:11:10;15.52;;;7.95;;
71572;SDS011;59408;51.032;9.410;2023-08-21T02:13:36;16.27;;;8.77;;
71572;SDS011;59408;51.032;9.410;2023-08-21T02:16:04;12.60;;;8.27;;
71572;SDS011;59408;51.032;9.410;2023-08-21T02:18:31;13.95;;;8.20;;
71572;SDS011;59408;51.032;9.410;2023-08-21T02:20:57;13.98;;;7.95;;
71572;SDS011;59408;51.032;9.410;2023-08-21T02:23:23;11.73;;;7.32;;
71572;SDS011;59408;51.032;9.410;2023-08-21T02:25:50;13.95;;;8.20;;
71572;SDS011;59408;51.032;9.410;2023-08-21T02:28:17;11.47;;;7.50;;
71572;SDS011;59408;51.032;9.410;2023-08-21T02:30:43;13.38;;;7.90;;
71572;SDS011;59408;51.032;9.410;2023-08-21T02:33:12;11.40;;;7.40;;
71572;SDS011;59408;51.032;9.410;2023-08-21T02:35:39;13.10;;;7.57;;
71572;SDS011;59408;51.032;9.410;2023-08-21T02:38:05;13.63;;;7.68;;
71572;SDS011;59408;51.032;9.410;2023-08-21T02:40:31;14.43;;;8.63;;
71572;SDS011;59408;51.032;9.410;2023-08-21T02:42:58;15.63;;;8.60;;
71572;SDS011;59408;51.032;9.410;2023-08-21T02:45:24;12.60;;;8.13;;
71572;SDS011;59408;51.032;9.410;2023-08-21T02:47:51;13.73;;;8.38;;
71572;SDS011;59408;51.032;9.410;2023-08-21T02:50:19;12.73;;;8.30;;
71572;SDS011;59408;51.032;9.410;2023-08-21T02:52:45;12.93;;;7.83;;
71572;SDS011;59408;51.032;9.410;2023-08-21T02:55:12;12.35;;;7.93;;
71572;SDS011;59408;51.032;9.410;2023-08-21T02:57:38;13.90;;;8.45;;
71572;SDS011;59408;51.032;9.410;2023-08-21T03:00:05;13.88;;;8.50;;
71572;SDS011;59408;51.032;9.410;2023-08-21T03:02:32;14.45;;;7.88;;
71572;SDS011;59408;51.032;9.410;2023-08-21T03:04:59;16.93;;;9.23;;
71572;SDS011;59408;51.032;9.410;2023-08-21T03:07:28;12.82;;;8.38;;
71572;SDS011;59408;51.032;9.410;2023-08-21T03:09:54;15.00;;;8.80;;
71572;SDS011;59408;51.032;9.410;2023-08-21T03:12:20;13.45;;;8.70;;
71572;SDS011;59408;51.032;9.410;2023-08-21T03:14:47;13.77;;;8.68;;
71572;SDS011;59408;51.032;9.410;2023-08-21T03:17:13;13.20;;;8.57;;
71572;SDS011;59408;51.032;9.410;2023-08-21T03:19:40;16.67;;;9.23;;
71572;SDS011;59408;51.032;9.410;2023-08-21T03:22:06;14.13;;;9.00;;
71572;SDS011;59408;51.032;9.410;2023-08-21T03:24:34;13.80;;;8.68;;
71572;SDS011;59408;51.032;9.410;2023-08-21T03:27:01;13.00;;;8.48;;
71572;SDS011;59408;51.032;9.410;2023-08-21T03:29:27;13.93;;;8.50;;
71572;SDS011;59408;51.032;9.410;2023-08-21T03:31:54;14.35;;;8.65;;
71572;SDS011;59408;51.032;9.410;2023-08-21T03:34:21;13.90;;;8.18;;
71572;SDS011;59408;51.032;9.410;2023-08-21T03:36:47;13.80;;;8.98;;
71572;SDS011;59408;51.032;9.410;2023-08-21T03:39:14;13.48;;;9.05;;
71572;SDS011;59408;51.032;9.410;2023-08-21T03:41:41;14.13;;;8.53;;
71572;SDS011;59408;51.032;9.410;2023-08-21T03:44:08;15.65;;;8.85;;
71572;SDS011;59408;51.032;9.410;2023-08-21T03:46:34;14.80;;;8.52;;
71572;SDS011;59408;51.032;9.410;2023-08-21T03:49:01;15.10;;;9.05;;
71572;SDS011;59408;51.032;9.410;2023-08-21T03:51:27;13.68;;;9.07;;
71572;SDS011;59408;51.032;9.410;2023-08-21T03:53:54;13.87;;;9.50;;
71572;SDS011;59408;51.032;9.410;2023-08-21T03:56:20;13.73;;;9.05;;
71572;SDS011;59408;51.032;9.410;2023-08-21T03:58:48;15.40;;;9.32;;
71572;SDS011;59408;51.032;9.410;2023-08-21T04:01:15;13.02;;;8.60;;
71572;SDS011;59408;51.032;9.410;2023-08-21T04:03:41;13.65;;;9.35;;
71572;SDS011;59408;51.032;9.410;2023-08-21T04:06:08;16.77;;;9.73;;
71572;SDS011;59408;51.032;9.410;2023-08-21T04:08:34;13.93;;;9.50;;
71572;SDS011;59408;51.032;9.410;2023-08-21T04:11:01;18.10;;;9.10;;
71572;SDS011;59408;51.032;9.410;2023-08-21T04:13:28;14.32;;;9.00;;
71572;SDS011;59408;51.032;9.410;2023-08-21T04:15:56;14.80;;;8.82;;
71572;SDS011;59408;51.032;9.410;2023-08-21T04:18:22;14.57;;;9.27;;
71572;SDS011;59408;51.032;9.410;2023-08-21T04:21:06;13.68;;;8.65;;
71572;SDS011;59408;51.032;9.410;2023-08-21T04:23:33;13.85;;;8.77;;
71572;SDS011;59408;51.032;9.410;2023-08-21T04:26:00;15.15;;;8.32;;
71572;SDS011;59408;51.032;9.410;2023-08-21T04:28:27;14.88;;;9.00;;
71572;SDS011;59408;51.032;9.410;2023-08-21T04:30:53;14.93;;;8.43;;
71572;SDS011;59408;51.032;9.410;2023-08-21T04:33:21;14.30;;;8.38;;
71572;SDS011;59408;51.032;9.410;2023-08-21T04:35:47;13.75;;;9.27;;
71572;SDS011;59408;51.032;9.410;2023-08-21T04:38:14;13.95;;;8.63;;
71572;SDS011;59408;51.032;9.410;2023-08-21T04:40:40;15.75;;;9.18;;
71572;SDS011;59408;51.032;9.410;2023-08-21T04:43:07;14.60;;;9.37;;
71572;SDS011;59408;51.032;9.410;2023-08-21T04:45:33;14.07;;;9.02;;
71572;SDS011;59408;51.032;9.410;2023-08-21T04:48:00;14.40;;;8.65;;
71572;SDS011;59408;51.032;9.410;2023-08-21T04:50:28;13.73;;;8.27;;
71572;SDS011;59408;51.032;9.410;2023-08-21T04:52:54;13.68;;;8.23;;
71572;SDS011;59408;51.032;9.410;2023-08-21T04:55:21;14.33;;;8.83;;
71572;SDS011;59408;51.032;9.410;2023-08-21T04:57:47;13.40;;;8.88;;
71572;SDS011;59408;51.032;9.410;2023-08-21T05:00:14;16.48;;;10.00;;
71572;SDS011;59408;51.032;9.410;2023-08-21T05:02:41;16.25;;;9.98;;
71572;SDS011;59408;51.032;9.410;2023-08-21T05:05:08;17.70;;;10.50;;
71572;SDS011;59408;51.032;9.410;2023-08-21T05:07:35;17.17;;;9.47;;
71572;SDS011;59408;51.032;9.410;2023-08-21T05:10:02;17.48;;;9.75;;
71572;SDS011;59408;51.032;9.410;2023-08-21T05:12:29;16.10;;;9.35;;
71572;SDS011;59408;51.032;9.410;2023-08-21T05:14:55;15.05;;;9.20;;
71572;SDS011;59408;51.032;9.410;2023-08-21T05:17:23;14.18;;;8.73;;
71572;SDS011;59408;51.032;9.410;2023-08-21T05:19:50;13.17;;;8.77;;
71572;SDS011;59408;51.032;9.410;2023-08-21T05:22:16;14.43;;;8.43;;
71572;SDS011;59408;51.032;9.410;2023-08-21T05:24:44;15.45;;;9.20;;
71572;SDS011;59408;51.032;9.410;2023-08-21T05:27:11;14.23;;;8.52;;
71572;SDS011;59408;51.032;9.410;2023-08-21T05:29:37;14.40;;;8.80;;
71572;SDS011;59408;51.032;9.410;2023-08-21T05:32:04;17.87;;;8.53;;
71572;SDS011;59408;51.032;9.410;2023-08-21T05:34:31;13.05;;;8.40;;
71572;SDS011;59408;51.032;9.410;2023-08-21T05:36:57;14.73;;;8.23;;
71572;SDS011;59408;51.032;9.410;2023-08-21T05:39:24;14.90;;;8.88;;
71572;SDS011;59408;51.032;9.410;2023-08-21T05:41:51;15.02;;;8.40;;
71572;SDS011;59408;51.032;9.410;2023-08-21T05:44:18;14.30;;;8.73;;
71572;SDS011;59408;51.032;9.410;2023-08-21T05:46:44;15.32;;;8.52;;
71572;SDS011;59408;51.032;9.410;2023-08-21T05:49:11;14.85;;;8.73;;
71572;SDS011;59408;51.032;9.410;2023-08-21T05:51:37;14.10;;;8.48;;
71572;SDS011;59408;51.032;9.410;2023-08-21T05:54:05;15.07;;;8.90;;
71572;SDS011;59408;51.032;9.410;2023-08-21T05:56:32;14.80;;;8.43;;
71572;SDS011;59408;51.032;9.410;2023-08-21T05:59:00;17.58;;;8.23;;
71572;SDS011;59408;51.032;9.410;2023-08-21T06:01:26;13.07;;;8.57;;
71572;SDS011;59408;51.032;9.410;2023-08-21T06:03:53;12.27;;;8.18;;
71572;SDS011;59408;51.032;9.410;2023-08-21T06:06:19;14.10;;;8.40;;
71572;SDS011;59408;51.032;9.410;2023-08-21T06:08:46;15.20;;;8.70;;
71572;SDS011;59408;51.032;9.410;2023-08-21T06:11:12;15.15;;;8.80;;
71572;SDS011;59408;51.032;9.410;2023-08-21T06:13:39;14.57;;;9.30;;
71572;SDS011;59408;51.032;9.410;2023-08-21T06:16:07;14.20;;;8.65;;
71572;SDS011;59408;51.032;9.410;2023-08-21T06:18:33;13.15;;;8.45;;
71572;SDS011;59408;51.032;9.410;2023-08-21T06:21:00;12.40;;;8.27;;
71572;SDS011;59408;51.032;9.410;2023-08-21T06:23:26;12.93;;;8.48;;
71572;SDS011;59408;51.032;9.410;2023-08-21T06:25:53;14.25;;;8.48;;
71572;SDS011;59408;51.032;9.410;2023-08-21T06:28:19;14.27;;;8.52;;
71572;SDS011;59408;51.032;9.410;2023-08-21T06:30:46;12.35;;;8.23;;
71572;SDS011;59408;51.032;9.410;2023-08-21T06:33:14;12.80;;;7.33;;
71572;SDS011;59408;51.032;9.410;2023-08-21T06:35:40;12.98;;;8.00;;
71572;SDS011;59408;51.032;9.410;2023-08-21T06:38:07;12.73;;;7.50;;
71572;SDS011;59408;51.032;9.410;2023-08-21T06:40:33;13.00;;;7.75;;
71572;SDS011;59408;51.032;9.410;2023-08-21T06:43:00;12.43;;;7.70;;
71572;SDS011;59408;51.032;9.410;2023-08-21T06:45:26;12.63;;;8.13;;
71572;SDS011;59408;51.032;9.410;2023-08-21T06:47:52;14.27;;;7.65;;
71572;SDS011;59408;51.032;9.410;2023-08-21T06:50:20;14.95;;;8.02;;
71572;SDS011;59408;51.032;9.410;2023-08-21T06:52:47;12.52;;;7.70;;
71572;SDS011;59408;51.032;9.410;2023-08-21T06:55:13;13.10;;;8.18;;
71572;SDS011;59408;51.032;9.410;2023-08-21T06:57:40;11.10;;;7.23;;
71572;SDS011;59408;51.032;9.410;2023-08-21T07:00:07;11.73;;;7.93;;
71572;SDS011;59408;51.032;9.410;2023-08-21T07:02:34;13.90;;;7.55;;
71572;SDS011;59408;51.032;9.410;2023-08-21T07:05:02;11.82;;;7.00;;
71572;SDS011;59408;51.032;9.410;2023-08-21T07:07:30;15.02;;;7.35;;
71572;SDS011;59408;51.032;9.410;2023-08-21T07:09:56;14.33;;;7.80;;
71572;SDS011;59408;51.032;9.410;2023-08-21T07:12:23;11.43;;;6.85;;
71572;SDS011;59408;51.032;9.410;2023-08-21T07:14:49;12.10;;;7.47;;
71572;SDS011;59408;51.032;9.410;2023-08-21T07:17:16;10.80;;;7.65;;
71572;SDS011;59408;51.032;9.410;2023-08-21T07:19:42;12.05;;;7.45;;
71572;SDS011;59408;51.032;9.410;2023-08-21T07:22:12;13.13;;;7.87;;
71572;SDS011;59408;51.032;9.410;2023-08-21T07:24:40;14.05;;;6.97;;
71572;SDS011;59408;51.032;9.410;2023-08-21T07:27:07;12.25;;;7.40;;
71572;SDS011;59408;51.032;9.410;2023-08-21T07:29:33;13.65;;;7.90;;
71572;SDS011;59408;51.032;9.410;2023-08-21T07:32:00;11.85;;;7.45;;
71572;SDS011;59408;51.032;9.410;2023-08-21T07:34:27;10.80;;;6.83;;
71572;SDS011;59408;51.032;9.410;2023-08-21T07:36:54;10.73;;;6.72;;
71572;SDS011;59408;51.032;9.410;2023-08-21T07:39:20;11.48;;;6.95;;
71572;SDS011;59408;51.032;9.410;2023-08-21T07:41:48;9.43;;;7.00;;
71572;SDS011;59408;51.032;9.410;2023-08-21T07:44:15;11.13;;;7.13;;
71572;SDS011;59408;51.032;9.410;2023-08-21T07:46:41;10.97;;;7.33;;
71572;SDS011;59408;51.032;9.410;2023-08-21T07:49:08;10.43;;;7.13;;
71572;SDS011;59408;51.032;9.410;2023-08-21T07:51:34;11.25;;;7.38;;
71572;SDS011;59408;51.032;9.410;2023-08-21T07:54:00;12.07;;;7.13;;
71572;SDS011;59408;51.032;9.410;2023-08-21T07:56:27;11.38;;;7.32;;
71572;SDS011;59408;51.032;9.410;2023-08-21T07:58:55;11.87;;;7.53;;
71572;SDS011;59408;51.032;9.410;2023-08-21T08:01:21;10.38;;;7.57;;
71572;SDS011;59408;51.032;9.410;2023-08-21T08:03:48;12.25;;;7.47;;
71572;SDS011;59408;51.032;9.410;2023-08-21T08:06:14;12.95;;;7.07;;
71572;SDS011;59408;51.032;9.410;2023-08-21T08:08:41;11.38;;;6.60;;
71572;SDS011;59408;51.032;9.410;2023-08-21T08:11:08;10.33;;;6.60;;
71572;SDS011;59408;51.032;9.410;2023-08-21T08:13:34;13.50;;;7.00;;
71572;SDS011;59408;51.032;9.410;2023-08-21T08:16:02;11.93;;;6.97;;
71572;SDS011;59408;51.032;9.410;2023-08-21T08:18:28;13.30;;;6.95;;
71572;SDS011;59408;51.032;9.410;2023-08-21T08:20:55;14.73;;;7.30;;
71572;SDS011;59408;51.032;9.410;2023-08-21T08:23:22;10.90;;;6.40;;
71572;SDS011;59408;51.032;9.410;2023-08-21T08:25:48;9.98;;;6.32;;
71572;SDS011;59408;51.032;9.410;2023-08-21T08:28:15;9.02;;;6.20;;
71572;SDS011;59408;51.032;9.410;2023-08-21T08:30:41;11.30;;;6.40;;
71572;SDS011;59408;51.032;9.410;2023-08-21T08:33:09;12.13;;;6.72;;
71572;SDS011;59408;51.032;9.410;2023-08-21T08:35:35;12.13;;;7.17;;
71572;SDS011;59408;51.032;9.410;2023-08-21T08:38:02;13.85;;;6.35;;
71572;SDS011;59408;51.032;9.410;2023-08-21T08:40:29;11.73;;;6.97;;
71572;SDS011;59408;51.032;9.410;2023-08-21T08:42:56;11.95;;;7.15;;
71572;SDS011;59408;51.032;9.410;2023-08-21T08:45:27;11.52;;;6.90;;
71572;SDS011;59408;51.032;9.410;2023-08-21T08:47:55;13.93;;;7.23;;
71572;SDS011;59408;51.032;9.410;2023-08-21T08:50:24;10.63;;;6.38;;
71572;SDS011;59408;51.032;9.410;2023-08-21T08:52:53;11.40;;;6.68;;
71572;SDS011;59408;51.032;9.410;2023-08-21T08:55:28;9.88;;;6.93;;
71572;SDS011;59408;51.032;9.410;2023-08-21T08:57:55;11.13;;;6.63;;
71572;SDS011;59408;51.032;9.410;2023-08-21T09:00:22;11.60;;;6.60;;
71572;SDS011;59408;51.032;9.410;2023-08-21T09:02:48;10.13;;;6.18;;
71572;SDS011;59408;51.032;9.410;2023-08-21T09:05:17;10.48;;;6.55;;
71572;SDS011;59408;51.032;9.410;2023-08-21T09:07:45;9.93;;;6.78;;
71572;SDS011;59408;51.032;9.410;2023-08-21T09:10:12;10.75;;;6.95;;
71572;SDS011;59408;51.032;9.410;2023-08-21T09:12:40;11.23;;;6.20;;
71572;SDS011;59408;51.032;9.410;2023-08-21T09:15:10;11.20;;;6.30;;
71572;SDS011;59408;51.032;9.410;2023-08-21T09:17:36;12.93;;;6.40;;
71572;SDS011;59408;51.032;9.410;2023-08-21T09:20:03;11.07;;;6.32;;
71572;SDS011;59408;51.032;9.410;2023-08-21T09:22:30;9.18;;;6.38;;
71572;SDS011;59408;51.032;9.410;2023-08-21T09:25:02;9.67;;;6.10;;
71572;SDS011;59408;51.032;9.410;2023-08-21T09:27:29;8.85;;;5.85;;
71572;SDS011;59408;51.032;9.410;2023-08-21T09:29:55;12.23;;;6.97;;
71572;SDS011;59408;51.032;9.410;2023-08-21T09:32:23;10.13;;;6.07;;
71572;SDS011;59408;51.032;9.410;2023-08-21T09:34:50;10.38;;;6.53;;
71572;SDS011;59408;51.032;9.410;2023-08-21T09:37:16;10.03;;;6.50;;
71572;SDS011;59408;51.032;9.410;2023-08-21T09:39:43;10.50;;;6.80;;
71572;SDS011;59408;51.032;9.410;2023-08-21T09:42:10;10.57;;;6.25;;
71572;SDS011;59408;51.032;9.410;2023-08-21T09:44:37;11.32;;;6.22;;
71572;SDS011;59408;51.032;9.410;2023-08-21T09:47:07;16.77;;;7.13;;
71572;SDS011;59408;51.032;9.410;2023-08-21T09:49:34;12.23;;;6.87;;
71572;SDS011;59408;51.032;9.410;2023-08-21T09:52:00;10.32;;;6.35;;
71572;SDS011;59408;51.032;9.410;2023-08-21T09:54:30;10.40;;;6.60;;
71572;SDS011;59408;51.032;9.410;2023-08-21T09:56:57;10.93;;;6.47;;
71572;SDS011;59408;51.032;9.410;2023-08-21T09:59:29;9.30;;;6.45;;
71572;SDS011;59408;51.032;9.410;2023-08-21T10:01:55;9.67;;;7.27;;
71572;SDS011;59408;51.032;9.410;2023-08-21T10:04:24;11.10;;;6.93;;
71572;SDS011;59408;51.032;9.410;2023-08-21T10:06:52;10.07;;;6.05;;
71572;SDS011;59408;51.032;9.410;2023-08-21T10:09:21;11.50;;;6.63;;
71572;SDS011;59408;51.032;9.410;2023-08-21T10:11:49;7.95;;;6.20;;
71572;SDS011;59408;51.032;9.410;2023-08-21T10:14:18;9.50;;;6.53;;
71572;SDS011;59408;51.032;9.410;2023-08-21T10:16:46;9.35;;;6.18;;
71572;SDS011;59408;51.032;9.410;2023-08-21T10:19:13;10.10;;;6.10;;
71572;SDS011;59408;51.032;9.410;2023-08-21T10:21:40;9.20;;;6.70;;
71572;SDS011;59408;51.032;9.410;2023-08-21T10:24:07;11.70;;;6.72;;
71572;SDS011;59408;51.032;9.410;2023-08-21T10:26:37;9.73;;;6.53;;
71572;SDS011;59408;51.032;9.410;2023-08-21T10:29:06;8.60;;;6.38;;
71572;SDS011;59408;51.032;9.410;2023-08-21T10:31:34;10.77;;;6.20;;
71572;SDS011;59408;51.032;9.410;2023-08-21T10:34:03;9.95;;;6.50;;
71572;SDS011;59408;51.032;9.410;2023-08-21T10:39:34;8.97;;;5.30;;
71572;SDS011;59408;51.032;9.410;2023-08-21T10:42:01;8.70;;;5.22;;
71572;SDS011;59408;51.032;9.410;2023-08-21T10:44:35;8.02;;;4.75;;
71572;SDS011;59408;51.032;9.410;2023-08-21T10:47:13;10.82;;;5.55;;
71572;SDS011;59408;51.032;9.410;2023-08-21T10:49:42;7.80;;;4.70;;
71572;SDS011;59408;51.032;9.410;2023-08-21T10:52:09;7.87;;;4.93;;
71572;SDS011;59408;51.032;9.410;2023-08-21T10:54:45;8.27;;;4.65;;
71572;SDS011;59408;51.032;9.410;2023-08-21T10:57:12;8.50;;;4.32;;
71572;SDS011;59408;51.032;9.410;2023-08-21T10:59:48;8.93;;;4.10;;
71572;SDS011;59408;51.032;9.410;2023-08-21T11:02:15;7.22;;;4.32;;
71572;SDS011;59408;51.032;9.410;2023-08-21T11:04:43;8.80;;;5.23;;
71572;SDS011;59408;51.032;9.410;2023-08-21T11:07:10;11.18;;;5.00;;
71572;SDS011;59408;51.032;9.410;2023-08-21T11:09:37;6.63;;;4.32;;
71572;SDS011;59408;51.032;9.410;2023-08-21T11:12:05;7.38;;;4.68;;
71572;SDS011;59408;51.032;9.410;2023-08-21T11:14:32;7.15;;;4.75;;
71572;SDS011;59408;51.032;9.410;2023-08-21T11:16:59;8.33;;;5.10;;
71572;SDS011;59408;51.032;9.410;2023-08-21T11:19:26;7.90;;;4.68;;
71572;SDS011;59408;51.032;9.410;2023-08-21T11:21:53;7.55;;;4.75;;
71572;SDS011;59408;51.032;9.410;2023-08-21T11:24:20;8.45;;;4.80;;
71572;SDS011;59408;51.032;9.410;2023-08-21T11:26:46;8.00;;;4.20;;
71572;SDS011;59408;51.032;9.410;2023-08-21T11:29:13;5.83;;;3.47;;
71572;SDS011;59408;51.032;9.410;2023-08-21T11:31:40;6.20;;;3.22;;
71572;SDS011;59408;51.032;9.410;2023-08-21T11:34:06;7.13;;;3.28;;
71572;SDS011;59408;51.032;9.410;2023-08-21T11:36:47;6.72;;;3.33;;
71572;SDS011;59408;51.032;9.410;2023-08-21T11:39:15;5.85;;;3.67;;
71572;SDS011;59408;51.032;9.410;2023-08-21T11:41:54;6.37;;;3.70;;
71572;SDS011;59408;51.032;9.410;2023-08-21T11:44:20;6.70;;;3.80;;
71572;SDS011;59408;51.032;9.410;2023-08-21T11:46:47;6.10;;;3.50;;
71572;SDS011;59408;51.032;9.410;2023-08-21T11:49:13;6.57;;;3.75;;
71572;SDS011;59408;51.032;9.410;2023-08-21T11:51:41;10.05;;;6.10;;
71572;SDS011;59408;51.032;9.410;2023-08-21T11:54:08;6.07;;;3.53;;
71572;SDS011;59408;51.032;9.410;2023-08-21T11:56:36;6.85;;;3.70;;
71572;SDS011;59408;51.032;9.410;2023-08-21T11:59:04;6.00;;;3.40;;
71572;SDS011;59408;51.032;9.410;2023-08-21T12:01:32;6.43;;;3.60;;
71572;SDS011;59408;51.032;9.410;2023-08-21T12:03:59;7.50;;;4.28;;
71572;SDS011;59408;51.032;9.410;2023-08-21T12:06:26;6.77;;;3.87;;
71572;SDS011;59408;51.032;9.410;2023-08-21T12:08:52;6.93;;;4.40;;
71572;SDS011;59408;51.032;9.410;2023-08-21T12:11:20;5.65;;;3.60;;
71572;SDS011;59408;51.032;9.410;2023-08-21T12:13:48;7.40;;;3.78;;
71572;SDS011;59408;51.032;9.410;2023-08-21T12:16:15;6.35;;;4.03;;
71572;SDS011;59408;51.032;9.410;2023-08-21T12:18:41;6.60;;;4.07;;
71572;SDS011;59408;51.032;9.410;2023-08-21T12:21:08;6.13;;;3.92;;
71572;SDS011;59408;51.032;9.410;2023-08-21T12:23:34;7.50;;;3.63;;
71572;SDS011;59408;51.032;9.410;2023-08-21T12:26:01;6.60;;;3.92;;
71572;SDS011;59408;51.032;9.410;2023-08-21T12:28:27;6.65;;;3.88;;
71572;SDS011;59408;51.032;9.410;2023-08-21T12:30:55;7.20;;;3.93;;
71572;SDS011;59408;51.032;9.410;2023-08-21T12:33:21;6.85;;;3.63;;
71572;SDS011;59408;51.032;9.410;2023-08-21T12:35:50;6.53;;;3.80;;
71572;SDS011;59408;51.032;9.410;2023-08-21T12:38:16;7.40;;;3.80;;
71572;SDS011;59408;51.032;9.410;2023-08-21T12:40:43;6.90;;;3.67;;
71572;SDS011;59408;51.032;9.410;2023-08-21T12:43:09;6.70;;;3.53;;
71572;SDS011;59408;51.032;9.410;2023-08-21T12:45:36;6.18;;;3.30;;
71572;SDS011;59408;51.032;9.410;2023-08-21T12:48:04;7.72;;;3.38;;
71572;SDS011;59408;51.032;9.410;2023-08-21T12:50:31;6.93;;;3.70;;
71572;SDS011;59408;51.032;9.410;2023-08-21T12:52:58;5.80;;;3.33;;
71572;SDS011;59408;51.032;9.410;2023-08-21T12:55:25;6.23;;;3.30;;
71572;SDS011;59408;51.032;9.410;2023-08-21T12:57:51;5.97;;;3.47;;
71572;SDS011;59408;51.032;9.410;2023-08-21T13:00:18;8.52;;;3.38;;
71572;SDS011;59408;51.032;9.410;2023-08-21T13:02:44;6.97;;;3.78;;
71572;SDS011;59408;51.032;9.410;2023-08-21T13:05:12;8.60;;;3.90;;
71572;SDS011;59408;51.032;9.410;2023-08-21T13:07:39;7.10;;;4.10;;
71572;SDS011;59408;51.032;9.410;2023-08-21T13:10:07;6.60;;;4.00;;
71572;SDS011;59408;51.032;9.410;2023-08-21T13:12:34;7.43;;;4.22;;
71572;SDS011;59408;51.032;9.410;2023-08-21T13:15:00;7.15;;;4.45;;
71572;SDS011;59408;51.032;9.410;2023-08-21T13:17:27;7.85;;;4.60;;
71572;SDS011;59408;51.032;9.410;2023-08-21T13:19:53;9.27;;;4.60;;
71572;SDS011;59408;51.032;9.410;2023-08-21T13:22:21;6.45;;;4.50;;
71572;SDS011;59408;51.032;9.410;2023-08-21T13:24:48;7.30;;;4.35;;
71572;SDS011;59408;51.032;9.410;2023-08-21T13:27:14;8.70;;;4.50;;
71572;SDS011;59408;51.032;9.410;2023-08-21T13:29:41;7.97;;;4.45;;
71572;SDS011;59408;51.032;9.410;2023-08-21T13:32:07;6.83;;;4.20;;
71572;SDS011;59408;51.032;9.410;2023-08-21T13:34:34;8.23;;;4.50;;
71572;SDS011;59408;51.032;9.410;2023-08-21T13:37:00;8.30;;;4.45;;
71572;SDS011;59408;51.032;9.410;2023-08-21T13:39:28;6.85;;;4.65;;
71572;SDS011;59408;51.032;9.410;2023-08-21T13:41:55;8.07;;;4.65;;
71572;SDS011;59408;51.032;9.410;2023-08-21T13:44:21;7.40;;;4.50;;
71572;SDS011;59408;51.032;9.410;2023-08-21T13:46:48;6.72;;;4.53;;
71572;SDS011;59408;51.032;9.410;2023-08-21T13:49:16;7.70;;;4.70;;
71572;SDS011;59408;51.032;9.410;2023-08-21T13:51:42;7.45;;;4.40;;
71572;SDS011;59408;51.032;9.410;2023-08-21T13:54:09;7.25;;;4.47;;
71572;SDS011;59408;51.032;9.410;2023-08-21T13:56:36;8.00;;;4.40;;
71572;SDS011;59408;51.032;9.410;2023-08-21T13:59:03;12.50;;;5.32;;
71572;SDS011;59408;51.032;9.410;2023-08-21T14:01:30;10.20;;;5.60;;
71572;SDS011;59408;51.032;9.410;2023-08-21T14:03:56;8.65;;;4.43;;
71572;SDS011;59408;51.032;9.410;2023-08-21T14:06:23;7.70;;;4.55;;
71572;SDS011;59408;51.032;9.410;2023-08-21T14:08:49;9.40;;;4.83;;
71572;SDS011;59408;51.032;9.410;2023-08-21T14:11:16;10.38;;;5.15;;
71572;SDS011;59408;51.032;9.410;2023-08-21T14:13:44;8.07;;;5.13;;
71572;SDS011;59408;51.032;9.410;2023-08-21T14:16:10;9.15;;;4.88;;
71572;SDS011;59408;51.032;9.410;2023-08-21T14:18:37;9.07;;;4.70;;
71572;SDS011;59408;51.032;9.410;2023-08-21T14:21:03;9.87;;;4.63;;
71572;SDS011;59408;51.032;9.410;2023-08-21T14:23:30;8.85;;;4.88;;
71572;SDS011;59408;51.032;9.410;2023-08-21T14:25:59;7.50;;;4.78;;
71572;SDS011;59408;51.032;9.410;2023-08-21T14:28:26;8.85;;;4.88;;
71572;SDS011;59408;51.032;9.410;2023-08-21T14:30:54;11.90;;;4.68;;
71572;SDS011;59408;51.032;9.410;2023-08-21T14:33:20;8.70;;;5.10;;
71572;SDS011;59408;51.032;9.410;2023-08-21T14:35:47;7.50;;;4.85;;
71572;SDS011;59408;51.032;9.410;2023-08-21T14:38:13;7.13;;;4.50;;
71572;SDS011;59408;51.032;9.410;2023-08-21T14:40:40;6.82;;;4.38;;